Time;durP1;ratioP1;P1;durP2;ratioP2;P2;SDS_P1;SDS_P2;PMS_P1;PMS_P2;Temp;Humidity;BMP_temperature;BMP_pressure;BME280_temperature;BME280_humidity;BME280_pressure;Samples;Min_cycle;Max_cycle;Signal;HPM_P1;HPM_P2
2021/04/18 00:01:12;;;;;;;;;;;;;;;11.25;38.32;102517.03;5034922;28;20002;-80
2021/04/18 00:03:37;;;;;;;;;;;;;;;11.25;38.23;102517.03;5034190;28;19924;-79
2021/04/18 00:06:03;;;;;;;;;;;;;;;11.24;38.22;102510.75;5035744;28;19913;-79
2021/04/18 00:08:28;;;;;;;;;;;;;;;11.22;37.97;102512.06;5064057;28;19992;-78
2021/04/18 00:10:53;;;;;;;;;;;;;;;11.20;38.02;102514.19;5064116;28;19967;-79
2021/04/18 00:13:18;;;;;;;;;;;;;;;11.20;38.13;102509.53;5064864;28;19982;-79
2021/04/18 00:15:44;;;;;;;;;;;;;;;11.19;37.93;102515.25;5049974;28;19921;-79
2021/04/18 00:18:10;;;;;;;;;;;;;;;11.18;37.96;102510.84;5064254;28;19970;-78
2021/04/18 00:20:35;;;;;;;;;;;;;;;11.16;37.86;102507.50;5033194;28;19928;-79
2021/04/18 00:23:00;;;;;;;;;;;;;;;11.15;38.01;102508.59;5034310;28;19927;-79
2021/04/18 00:25:26;;;;;;;;;;;;;;;11.14;37.82;102510.50;5035518;28;19963;-79
2021/04/18 00:27:51;;;;;;;;;;;;;;;11.13;37.94;102508.00;5036009;28;20068;-79
2021/04/18 00:30:17;;;;;;;;;;;;;;;11.11;37.83;102508.25;5035173;28;20313;-80
2021/04/18 00:32:42;;;;;;;;;;;;;;;11.11;37.88;102506.34;5033504;28;19938;-79
2021/04/18 00:35:09;;;;;;;;;;;;;;;11.08;37.82;102511.44;5064474;28;20534;-80
2021/04/18 00:37:35;;;;;;;;;;;;;;;11.06;37.86;102497.19;5034433;28;20255;-78
2021/04/18 00:40:00;;;;;;;;;;;;;;;11.05;37.76;102499.09;5038098;28;19946;-80
2021/04/18 00:42:25;;;;;;;;;;;;;;;11.04;37.79;102502.06;5035178;28;19927;-79
2021/04/18 00:44:51;;;;;;;;;;;;;;;11.02;37.91;102502.31;5018753;28;19952;-78
2021/04/18 00:47:16;;;;;;;;;;;;;;;11.01;37.61;102502.53;5034218;28;20550;-79
2021/04/18 00:49:44;;;;;;;;;;;;;;;11.02;37.80;102501.44;5032398;28;22371;-80
2021/04/18 00:52:09;;;;;;;;;;;;;;;11.00;37.60;102504.44;5035280;28;20007;-78
2021/04/18 00:54:34;;;;;;;;;;;;;;;10.97;37.62;102504.91;5034187;28;19920;-78
2021/04/18 00:56:59;;;;;;;;;;;;;;;10.97;37.64;102504.06;5035752;28;19970;-78
2021/04/18 00:59:24;;;;;;;;;;;;;;;10.95;37.69;102514.38;5035047;28;19920;-78
2021/04/18 01:01:50;;;;;;;;;;;;;;;10.93;37.54;102509.16;5036091;28;20015;-78
2021/04/18 01:04:15;;;;;;;;;;;;;;;10.91;37.77;102499.53;5035285;28;19955;-77
2021/04/18 01:06:40;;;;;;;;;;;;;;;10.88;37.88;102517.19;5034391;28;19971;-79
2021/04/18 01:09:06;;;;;;;;;;;;;;;10.86;37.82;102509.25;5033191;28;20321;-78
2021/04/18 01:11:31;;;;;;;;;;;;;;;10.86;37.83;102508.44;5064029;28;20057;-79
2021/04/18 01:13:56;;;;;;;;;;;;;;;10.84;37.76;102510.56;5034829;28;19932;-78
2021/04/18 01:16:21;;;;;;;;;;;;;;;10.83;37.78;102506.16;5034439;28;19970;-79
2021/04/18 01:18:47;;;;;;;;;;;;;;;10.83;37.71;102508.88;5035229;28;19924;-78
2021/04/18 01:21:12;;;;;;;;;;;;;;;10.81;37.62;102505.56;5034503;28;19916;-80
2021/04/18 01:23:38;;;;;;;;;;;;;;;10.81;37.60;102516.47;5064624;28;19924;-80
2021/04/18 01:26:03;;;;;;;;;;;;;;;10.79;37.64;102507.69;5034459;28;20011;-79
2021/04/18 01:28:28;;;;;;;;;;;;;;;10.77;37.90;102498.91;5067919;28;20006;-80
2021/04/18 01:30:54;;;;;;;;;;;;;;;10.72;37.74;102502.34;5039381;28;19972;-80
2021/04/18 01:33:19;;;;;;;;;;;;;;;10.66;37.58;102492.34;5035324;28;19959;-79
2021/04/18 01:35:46;;;;;;;;;;;;;;;10.61;37.88;102493.06;5038110;28;20336;-80
2021/04/18 01:38:12;;;;;;;;;;;;;;;10.57;37.57;102499.19;5037072;28;20039;-80
2021/04/18 01:40:37;;;;;;;;;;;;;;;10.50;37.68;102504.72;5035866;28;19921;-78
2021/04/18 01:43:02;;;;;;;;;;;;;;;10.43;37.71;102498.56;5037380;28;19994;-79
2021/04/18 01:45:28;;;;;;;;;;;;;;;10.38;37.66;102495.69;5037319;28;19925;-78
2021/04/18 01:47:53;;;;;;;;;;;;;;;10.30;37.64;102493.28;5036108;28;19921;-79
2021/04/18 01:50:18;;;;;;;;;;;;;;;10.23;37.87;102494.19;5038025;28;20305;-79
2021/04/18 01:52:44;;;;;;;;;;;;;;;10.15;37.87;102491.75;5065792;28;19929;-79
2021/04/18 01:55:09;;;;;;;;;;;;;;;10.09;38.19;102498.09;5047333;28;20226;-78
2021/04/18 01:57:35;;;;;;;;;;;;;;;10.00;38.04;102494.03;5038287;28;20317;-79
2021/04/18 02:00:00;;;;;;;;;;;;;;;9.94;38.21;102501.22;5075294;28;19960;-78
2021/04/18 02:02:25;;;;;;;;;;;;;;;9.87;38.23;102499.63;5050038;28;20459;-78
2021/04/18 02:04:54;;;;;;;;;;;;;;;9.80;38.36;102498.91;5058327;28;19995;-80
2021/04/18 02:07:19;;;;;;;;;;;;;;;9.71;38.41;102499.19;5049790;28;20038;-78
2021/04/18 02:09:44;;;;;;;;;;;;;;;9.63;38.40;102494.03;5041491;28;19935;-79
2021/04/18 02:12:10;;;;;;;;;;;;;;;9.54;38.68;102500.81;5072691;28;19924;-79
2021/04/18 02:14:35;;;;;;;;;;;;;;;9.47;38.54;102489.19;5049919;28;20011;-79
2021/04/18 02:17:01;;;;;;;;;;;;;;;9.39;38.61;102486.75;5046738;28;20425;-79
2021/04/18 02:19:26;;;;;;;;;;;;;;;9.31;38.65;102487.88;5043314;28;19916;-80
2021/04/18 02:21:51;;;;;;;;;;;;;;;9.23;38.78;102488.97;5038335;28;19952;-79
2021/04/18 02:24:16;;;;;;;;;;;;;;;9.17;39.34;102478.97;5049826;28;19921;-79
2021/04/18 02:26:41;;;;;;;;;;;;;;;9.09;39.48;102480.09;5052605;28;19920;-79
2021/04/18 02:29:07;;;;;;;;;;;;;;;9.00;40.17;102472.41;5045234;28;19967;-79
2021/04/18 02:31:32;;;;;;;;;;;;;;;8.94;40.33;102476.03;5050103;28;20473;-79
2021/04/18 02:33:57;;;;;;;;;;;;;;;8.85;40.52;102473.56;5044944;28;19919;-79
2021/04/18 02:36:22;;;;;;;;;;;;;;;8.79;40.37;102477.19;5052353;28;19913;-79
2021/04/18 02:38:48;;;;;;;;;;;;;;;8.74;40.35;102487.06;5051292;28;19912;-79
2021/04/18 02:41:13;;;;;;;;;;;;;;;8.68;40.60;102480.63;5050337;28;19960;-79
2021/04/18 02:43:38;;;;;;;;;;;;;;;8.64;40.55;102479.38;5039798;28;20330;-79
2021/04/18 02:46:03;;;;;;;;;;;;;;;8.59;40.33;102479.19;5044431;28;19966;-79
2021/04/18 02:48:29;;;;;;;;;;;;;;;8.54;40.40;102471.72;5034024;28;20393;-79
2021/04/18 02:50:54;;;;;;;;;;;;;;;8.50;40.57;102472.38;5044184;28;19913;-79
2021/04/18 02:53:19;;;;;;;;;;;;;;;8.45;40.65;102473.00;5041921;28;20282;-79
2021/04/18 02:55:44;;;;;;;;;;;;;;;8.39;40.60;102468.44;5079633;28;19913;-79
2021/04/18 02:58:10;;;;;;;;;;;;;;;8.34;40.51;102463.63;5049482;28;20000;-79
2021/04/18 03:00:35;;;;;;;;;;;;;;;8.29;41.44;102459.91;5069273;28;19919;-79
2021/04/18 03:03:00;;;;;;;;;;;;;;;8.23;41.77;102464.31;5038800;28;19913;-79
2021/04/18 03:05:25;;;;;;;;;;;;;;;8.16;42.08;102461.66;5069973;28;19909;-79
2021/04/18 03:07:51;;;;;;;;;;;;;;;8.09;42.11;102466.25;5033752;28;19975;-79
2021/04/18 03:10:16;;;;;;;;;;;;;;;8.02;42.28;102457.34;5076621;28;19908;-80
2021/04/18 03:12:41;;;;;;;;;;;;;;;7.95;42.83;102454.63;5052570;28;19923;-79
2021/04/18 03:15:07;;;;;;;;;;;;;;;7.88;42.62;102453.81;5042534;28;19916;-79
2021/04/18 03:17:32;;;;;;;;;;;;;;;7.80;43.15;102448.63;5042602;28;19913;-79
2021/04/18 03:19:57;;;;;;;;;;;;;;;7.74;43.21;102447.59;5075712;28;19909;-78
2021/04/18 03:22:22;;;;;;;;;;;;;;;7.68;43.17;102453.06;5042662;28;19970;-78
2021/04/18 03:24:48;;;;;;;;;;;;;;;7.62;43.29;102440.34;5041967;28;20321;-79
2021/04/18 03:27:13;;;;;;;;;;;;;;;7.55;43.24;102449.31;5033510;28;19920;-79
2021/04/18 03:29:38;;;;;;;;;;;;;;;7.50;43.36;102446.44;5037913;28;19927;-78
2021/04/18 03:32:04;;;;;;;;;;;;;;;7.43;43.55;102456.44;5048475;28;19970;-79
2021/04/18 03:34:29;;;;;;;;;;;;;;;7.37;43.63;102451.88;5033629;28;20396;-79
2021/04/18 03:36:54;;;;;;;;;;;;;;;7.31;43.81;102448.13;5049328;28;19916;-78
2021/04/18 03:39:19;;;;;;;;;;;;;;;7.25;43.78;102446.25;5050978;28;20522;-79
2021/04/18 03:41:44;;;;;;;;;;;;;;;7.21;43.96;102446.91;5047298;28;20289;-79
2021/04/18 03:44:10;;;;;;;;;;;;;;;7.16;43.96;102446.69;5043211;28;19913;-78
2021/04/18 03:46:35;;;;;;;;;;;;;;;7.12;43.95;102446.28;5047416;28;20360;-79
2021/04/18 03:49:00;;;;;;;;;;;;;;;7.08;43.84;102445.84;5073715;28;19917;-79
2021/04/18 03:51:25;;;;;;;;;;;;;;;7.05;43.75;102443.56;5078845;28;19916;-78
2021/04/18 03:53:51;;;;;;;;;;;;;;;7.01;44.18;102442.31;5048442;28;19920;-78
2021/04/18 03:56:16;;;;;;;;;;;;;;;6.97;44.13;102440.22;5064229;28;20293;-78
2021/04/18 03:58:41;;;;;;;;;;;;;;;6.94;43.85;102441.47;5034069;28;19930;-79
2021/04/18 04:01:07;;;;;;;;;;;;;;;6.91;43.70;102431.06;5035947;28;22091;-79
2021/04/18 04:03:32;;;;;;;;;;;;;;;6.89;44.22;102435.84;5041266;28;20366;-79
2021/04/18 04:05:57;;;;;;;;;;;;;;;6.86;44.25;102438.97;5064710;28;19991;-79
2021/04/18 04:08:22;;;;;;;;;;;;;;;6.85;44.41;102438.16;5034802;28;20681;-78
2021/04/18 04:10:48;;;;;;;;;;;;;;;6.86;44.43;102439.81;5036260;28;19917;-78
2021/04/18 04:13:13;;;;;;;;;;;;;;;6.87;44.32;102435.22;5034951;28;19964;-78
2021/04/18 04:15:38;;;;;;;;;;;;;;;6.87;44.35;102425.22;5032958;28;20504;-78
2021/04/18 04:18:03;;;;;;;;;;;;;;;6.88;44.44;102423.34;5035827;28;19948;-76
2021/04/18 04:20:28;;;;;;;;;;;;;;;6.89;44.24;102433.13;5065736;28;19928;-78
2021/04/18 04:22:54;;;;;;;;;;;;;;;6.92;44.38;102427.28;5035206;28;20541;-77
2021/04/18 04:25:19;;;;;;;;;;;;;;;6.94;44.46;102436.06;5063799;28;19955;-78
2021/04/18 04:27:44;;;;;;;;;;;;;;;6.97;44.48;102427.50;5042616;28;20041;-78
2021/04/18 04:30:10;;;;;;;;;;;;;;;6.99;44.52;102428.13;5049091;28;19912;-78
2021/04/18 04:32:35;;;;;;;;;;;;;;;7.01;44.54;102425.19;5045461;28;20402;-78
2021/04/18 04:35:00;;;;;;;;;;;;;;;7.03;44.60;102431.25;5049487;28;19965;-78
2021/04/18 04:37:26;;;;;;;;;;;;;;;7.05;44.64;102430.00;5048631;28;19912;-78
2021/04/18 04:39:51;;;;;;;;;;;;;;;7.07;44.46;102430.63;5048577;28;19923;-78
2021/04/18 04:42:17;;;;;;;;;;;;;;;7.10;44.58;102432.91;5046455;28;20290;-78
2021/04/18 04:44:42;;;;;;;;;;;;;;;7.14;44.44;102429.78;5080039;28;19913;-78
2021/04/18 04:47:07;;;;;;;;;;;;;;;7.17;44.68;102437.50;5048041;28;20281;-78
2021/04/18 04:49:32;;;;;;;;;;;;;;;7.19;44.73;102436.25;5078672;28;20057;-78
2021/04/18 04:51:57;;;;;;;;;;;;;;;7.22;44.69;102424.97;5048696;28;19924;-78
2021/04/18 04:54:23;;;;;;;;;;;;;;;7.25;44.71;102431.84;5045222;28;19912;-79
2021/04/18 04:56:48;;;;;;;;;;;;;;;7.28;44.81;102423.28;5045932;28;20042;-79
2021/04/18 04:59:13;;;;;;;;;;;;;;;7.31;44.92;102431.84;5044640;28;19913;-78
2021/04/18 05:01:38;;;;;;;;;;;;;;;7.36;44.61;102431.19;5048164;28;19916;-79
2021/04/18 05:04:04;;;;;;;;;;;;;;;7.41;44.97;102436.84;5051145;28;19932;-78
2021/04/18 05:06:29;;;;;;;;;;;;;;;7.44;44.73;102428.25;5050050;28;19990;-78
2021/04/18 05:08:54;;;;;;;;;;;;;;;7.48;44.75;102432.22;5075992;28;20361;-78
2021/04/18 05:11:20;;;;;;;;;;;;;;;7.51;44.56;102434.53;5054464;28;19931;-78
2021/04/18 05:13:45;;;;;;;;;;;;;;;7.56;44.69;102433.88;5037006;28;19955;-79
2021/04/18 05:16:10;;;;;;;;;;;;;;;7.60;44.67;102434.28;5044024;28;19914;-78
2021/04/18 05:18:35;;;;;;;;;;;;;;;7.62;44.66;102427.59;5039306;28;19967;-78
2021/04/18 05:21:01;;;;;;;;;;;;;;;7.66;44.71;102433.41;5083908;28;20326;-78
2021/04/18 05:23:27;;;;;;;;;;;;;;;7.69;44.90;102428.44;5055475;28;20003;-79
2021/04/18 05:25:52;;;;;;;;;;;;;;;7.74;44.88;102427.75;5045810;28;20406;-79
2021/04/18 05:28:17;;;;;;;;;;;;;;;7.77;44.59;102430.03;5077576;28;20200;-78
2021/04/18 05:30:42;;;;;;;;;;;;;;;7.81;44.43;102430.47;5048204;28;20346;-78
2021/04/18 05:33:08;;;;;;;;;;;;;;;7.83;44.52;102431.91;5041057;28;19924;-78
2021/04/18 05:35:33;;;;;;;;;;;;;;;7.88;44.51;102431.25;5046320;28;19919;-79
2021/04/18 05:37:58;;;;;;;;;;;;;;;7.92;44.73;102427.91;5076961;28;20338;-79
2021/04/18 05:40:24;;;;;;;;;;;;;;;7.97;44.54;102429.97;5050492;28;19920;-78
2021/04/18 05:42:49;;;;;;;;;;;;;;;7.99;44.58;102434.16;5047489;28;19924;-79
2021/04/18 05:45:14;;;;;;;;;;;;;;;8.04;44.51;102421.78;5046416;28;20008;-79
2021/04/18 05:47:39;;;;;;;;;;;;;;;8.08;44.50;102423.84;5050303;28;20258;-79
2021/04/18 05:50:05;;;;;;;;;;;;;;;8.12;44.30;102422.38;5050872;28;19921;-80
2021/04/18 05:52:31;;;;;;;;;;;;;;;8.16;44.21;102429.03;5051004;28;20282;-80
2021/04/18 05:54:56;;;;;;;;;;;;;;;8.20;44.34;102424.81;5036195;28;20058;-79
2021/04/18 05:57:21;;;;;;;;;;;;;;;8.26;44.37;102428.56;5051599;28;20003;-83
2021/04/18 05:59:47;;;;;;;;;;;;;;;8.29;44.16;102428.13;5076362;28;19909;-81
2021/04/18 06:02:12;;;;;;;;;;;;;;;8.32;44.29;102422.28;5075060;28;19912;-81
2021/04/18 06:04:37;;;;;;;;;;;;;;;8.37;44.08;102422.41;5085864;28;19958;-82
2021/04/18 06:07:03;;;;;;;;;;;;;;;8.43;44.01;102423.50;5033001;28;19913;-81
2021/04/18 06:09:28;;;;;;;;;;;;;;;8.47;43.91;102426.59;5046449;28;19919;-81
2021/04/18 06:11:53;;;;;;;;;;;;;;;8.51;43.87;102425.09;5041044;28;19952;-82
2021/04/18 06:14:18;;;;;;;;;;;;;;;8.55;43.75;102420.88;5077936;28;19919;-81
2021/04/18 06:16:44;;;;;;;;;;;;;;;8.59;43.83;102416.66;5052553;28;19912;-81
2021/04/18 06:19:09;;;;;;;;;;;;;;;8.63;44.18;102416.00;5049318;28;19942;-82
2021/04/18 06:21:34;;;;;;;;;;;;;;;8.68;43.79;102420.78;5054561;28;19905;-82
2021/04/18 06:24:00;;;;;;;;;;;;;;;8.72;43.78;102411.13;5053470;28;19916;-82
2021/04/18 06:26:25;;;;;;;;;;;;;;;8.77;44.03;102408.59;5055973;28;19992;-81
2021/04/18 06:28:50;;;;;;;;;;;;;;;8.79;43.64;102406.47;5053566;28;19912;-82
2021/04/18 06:31:15;;;;;;;;;;;;;;;8.83;43.72;102407.69;5042989;28;20243;-78
2021/04/18 06:33:41;;;;;;;;;;;;;;;8.88;43.89;102410.56;5044774;28;19913;-75
2021/04/18 06:36:06;;;;;;;;;;;;;;;8.93;43.65;102403.66;5076032;28;20267;-75
2021/04/18 06:38:31;;;;;;;;;;;;;;;8.96;43.90;102417.63;5051568;28;19913;-75
2021/04/18 06:40:56;;;;;;;;;;;;;;;9.02;43.48;102410.47;5077264;28;20294;-81
2021/04/18 06:43:22;;;;;;;;;;;;;;;9.07;43.54;102413.34;5052798;28;19920;-82
2021/04/18 06:45:51;;;;;;;;;;;;;;;9.13;43.63;102417.06;5052754;28;20095;-82
2021/04/18 06:48:17;;;;;;;;;;;;;;;9.19;43.70;102413.44;5051736;28;19917;-81
2021/04/18 06:50:42;;;;;;;;;;;;;;;9.24;43.46;102406.25;5049040;28;19919;-82
2021/04/18 06:53:08;;;;;;;;;;;;;;;9.31;43.35;102409.75;5051637;28;19924;-81
2021/04/18 06:55:33;;;;;;;;;;;;;;;9.37;43.47;102404.47;5052926;28;19912;-80
2021/04/18 06:57:58;;;;;;;;;;;;;;;9.46;43.58;102411.25;5050419;28;19924;-80
2021/04/18 07:00:23;;;;;;;;;;;;;;;9.52;43.37;102404.91;5052076;28;19930;-80
2021/04/18 07:02:50;;;;;;;;;;;;;;;9.59;43.57;102405.69;5052782;28;20377;-79
2021/04/18 07:05:15;;;;;;;;;;;;;;;9.65;43.49;102398.47;5053753;28;19908;-80
2021/04/18 07:07:44;;;;;;;;;;;;;;;9.73;43.52;102396.28;5050437;28;20003;-79
2021/04/18 07:10:14;;;;;;;;;;;;;;;9.81;43.27;102397.03;5031260;28;20363;-80
2021/04/18 07:12:39;;;;;;;;;;;;;;;9.87;43.27;102401.56;5045381;28;20019;-80
2021/04/18 07:15:05;;;;;;;;;;;;;;;9.91;43.33;102397.34;5050612;28;20012;-81
2021/04/18 07:17:30;;;;;;;;;;;;;;;9.98;43.03;102390.75;5032580;28;19956;-80
2021/04/18 07:20:09;;;;;;;;;;;;;;;10.07;42.92;102391.25;5043642;28;19912;-81
2021/04/18 07:22:34;;;;;;;;;;;;;;;10.12;42.92;102385.94;5074884;28;19912;-81
2021/04/18 07:24:59;;;;;;;;;;;;;;;10.19;42.92;102394.81;5042498;28;20000;-81
2021/04/18 07:27:34;;;;;;;;;;;;;;;10.27;42.77;102384.66;5042120;28;19913;-80
2021/04/18 07:30:00;;;;;;;;;;;;;;;10.35;42.88;102387.09;5050205;28;19923;-79
2021/04/18 07:32:26;;;;;;;;;;;;;;;10.42;42.66;102385.94;5051624;28;20289;-80
2021/04/18 07:34:51;;;;;;;;;;;;;;;10.49;42.89;102388.53;5051572;28;19913;-80
2021/04/18 07:37:21;;;;;;;;;;;;;;;10.58;42.80;102387.13;5049142;28;19952;-81
2021/04/18 07:39:57;;;;;;;;;;;;;;;10.67;42.62;102384.91;5049357;28;20390;-80
2021/04/18 07:42:39;;;;;;;;;;;;;;;10.73;42.58;102389.41;5051012;28;20053;-81
2021/04/18 07:45:05;;;;;;;;;;;;;;;10.80;42.36;102389.28;5053161;28;19918;-81
2021/04/18 07:47:30;;;;;;;;;;;;;;;10.87;42.58;102392.75;5052232;28;20374;-80
2021/04/18 07:49:55;;;;;;;;;;;;;;;10.98;42.37;102391.09;5080072;28;19916;-81
2021/04/18 07:52:21;;;;;;;;;;;;;;;11.04;42.10;102393.69;5049299;28;19920;-81
2021/04/18 07:54:46;;;;;;;;;;;;;;;11.12;42.18;102397.97;5048966;28;19946;-81
2021/04/18 07:57:11;;;;;;;;;;;;;;;11.17;42.08;102394.53;5051790;28;19912;-81
2021/04/18 07:59:37;;;;;;;;;;;;;;;11.23;42.21;102393.56;5050340;28;19940;-81
2021/04/18 08:02:02;;;;;;;;;;;;;;;11.29;42.01;102390.75;5052787;28;20393;-81
2021/04/18 08:04:28;;;;;;;;;;;;;;;11.39;41.83;102392.84;5032101;28;19920;-79
2021/04/18 08:06:54;;;;;;;;;;;;;;;11.47;41.89;102389.75;5050457;28;19913;-80
2021/04/18 08:09:19;;;;;;;;;;;;;;;11.53;41.75;102396.97;5052029;28;20336;-81
2021/04/18 08:12:04;;;;;;;;;;;;;;;11.62;41.79;102393.88;5050103;28;19964;-81
2021/04/18 08:14:29;;;;;;;;;;;;;;;11.72;41.63;102396.81;5048271;28;19916;-81
2021/04/18 08:17:04;;;;;;;;;;;;;;;11.80;41.64;102393.69;5080674;28;19913;-81
2021/04/18 08:19:29;;;;;;;;;;;;;;;11.90;41.59;102388.47;5047268;28;19973;-80
2021/04/18 08:21:54;;;;;;;;;;;;;;;12.03;41.46;102386.50;5044974;28;20381;-81
2021/04/18 08:24:19;;;;;;;;;;;;;;;12.13;41.43;102398.47;5043624;28;19916;-81
2021/04/18 08:27:04;;;;;;;;;;;;;;;12.24;41.32;102391.28;5046978;28;20317;-80
2021/04/18 08:29:29;;;;;;;;;;;;;;;12.35;41.17;102392.31;5051294;28;20374;-81
2021/04/18 08:31:59;;;;;;;;;;;;;;;12.42;41.21;102401.19;5052231;28;19952;-81
2021/04/18 08:34:31;;;;;;;;;;;;;;;12.54;41.13;102392.91;5081417;28;19920;-81
2021/04/18 08:36:57;;;;;;;;;;;;;;;12.65;41.05;102384.63;5050486;28;20013;-81
2021/04/18 08:39:23;;;;;;;;;;;;;;;12.75;40.81;102392.16;5049431;28;19912;-81
2021/04/18 08:41:51;;;;;;;;;;;;;;;12.84;40.72;102393.41;5045269;28;19962;-81
2021/04/18 08:44:25;;;;;;;;;;;;;;;12.96;40.64;102392.47;5050905;28;20398;-79
2021/04/18 08:46:54;;;;;;;;;;;;;;;13.07;40.69;102391.56;5079133;28;19917;-80
2021/04/18 08:49:37;;;;;;;;;;;;;;;13.16;40.54;102390.06;5051106;28;19916;-82
2021/04/18 08:52:04;;;;;;;;;;;;;;;13.28;40.43;102389.97;5051751;28;19917;-81
2021/04/18 08:54:30;;;;;;;;;;;;;;;13.42;40.36;102393.16;5049814;28;19959;-81
2021/04/18 08:56:56;;;;;;;;;;;;;;;13.55;40.17;102387.31;5040067;28;19955;-81
2021/04/18 08:59:22;;;;;;;;;;;;;;;13.69;40.12;102385.84;5031626;28;20301;-81
2021/04/18 09:01:54;;;;;;;;;;;;;;;13.78;40.09;102386.25;5084337;28;19913;-80
2021/04/18 09:04:22;;;;;;;;;;;;;;;13.88;39.98;102386.34;5039623;28;19909;-81
2021/04/18 09:06:48;;;;;;;;;;;;;;;14.01;39.80;102378.81;5040985;28;19956;-82
2021/04/18 09:09:13;;;;;;;;;;;;;;;14.12;39.72;102381.41;5052275;28;20401;-81
2021/04/18 09:11:39;;;;;;;;;;;;;;;14.27;39.72;102375.25;5050032;28;19972;-82
2021/04/18 09:14:05;;;;;;;;;;;;;;;14.41;39.62;102378.41;5050033;28;20373;-80
2021/04/18 09:16:31;;;;;;;;;;;;;;;14.50;39.46;102387.78;5049541;28;19912;-81
2021/04/18 09:19:15;;;;;;;;;;;;;;;14.56;39.33;102378.53;5083148;28;20355;-80
2021/04/18 09:21:40;;;;;;;;;;;;;;;14.68;39.29;102378.38;5049721;28;19913;-81
2021/04/18 09:24:05;;;;;;;;;;;;;;;14.78;39.23;102380.38;5080356;28;19912;-81
2021/04/18 09:26:31;;;;;;;;;;;;;;;14.86;39.15;102377.13;5049334;28;19991;-80
2021/04/18 09:29:11;;;;;;;;;;;;;;;14.95;39.10;102377.47;5051366;28;19912;-81
2021/04/18 09:31:52;;;;;;;;;;;;;;;15.06;39.08;102373.72;5049473;28;20092;-81
2021/04/18 09:34:18;;;;;;;;;;;;;;;15.17;39.08;102369.06;5046486;28;19908;-80
2021/04/18 09:36:43;;;;;;;;;;;;;;;15.25;38.98;102366.69;5050534;28;20384;-81
2021/04/18 09:39:09;;;;;;;;;;;;;;;15.31;38.83;102367.53;5050386;28;20325;-80
2021/04/18 09:41:36;;;;;;;;;;;;;;;15.41;38.76;102367.56;5082225;28;19916;-80
2021/04/18 09:44:02;;;;;;;;;;;;;;;15.53;38.69;102361.84;5033591;28;19943;-80
2021/04/18 09:46:27;;;;;;;;;;;;;;;15.69;38.56;102366.34;5047013;28;20374;-79
2021/04/18 09:49:01;;;;;;;;;;;;;;;15.81;38.47;102363.34;5047548;28;19923;-80
2021/04/18 09:51:27;;;;;;;;;;;;;;;15.88;38.16;102357.59;5074924;28;19917;-81
2021/04/18 09:53:59;;;;;;;;;;;;;;;15.97;38.21;102362.28;5086830;28;19927;-80
2021/04/18 09:56:24;;;;;;;;;;;;;;;16.06;38.12;102359.81;5052019;28;20004;-81
2021/04/18 09:58:50;;;;;;;;;;;;;;;16.17;38.00;102355.97;5053743;28;20384;-80
2021/04/18 10:01:25;;;;;;;;;;;;;;;16.27;37.84;102360.69;5052549;28;19927;-80
2021/04/18 10:03:50;;;;;;;;;;;;;;;16.37;37.63;102355.19;5085401;28;19923;-80
2021/04/18 10:06:15;;;;;;;;;;;;;;;16.38;37.66;102351.34;5049868;28;19916;-81
2021/04/18 10:08:41;;;;;;;;;;;;;;;16.34;37.41;102354.91;5047907;28;20317;-81
2021/04/18 10:11:07;;;;;;;;;;;;;;;16.35;37.44;102359.31;5077968;28;19991;-81
2021/04/18 10:13:35;;;;;;;;;;;;;;;16.41;37.38;102355.47;5054138;28;19952;-80
2021/04/18 10:16:01;;;;;;;;;;;;;;;16.49;37.14;102357.66;5052476;28;20637;-80
2021/04/18 10:18:26;;;;;;;;;;;;;;;16.57;37.02;102351.59;5043715;28;20003;-80
2021/04/18 10:20:52;;;;;;;;;;;;;;;16.52;36.61;102350.78;5051768;28;19913;-80
2021/04/18 10:23:17;;;;;;;;;;;;;;;16.46;36.57;102347.22;5044815;28;19963;-79
2021/04/18 10:25:42;;;;;;;;;;;;;;;16.49;36.66;102352.16;5045474;28;19955;-80
2021/04/18 10:28:09;;;;;;;;;;;;;;;16.65;36.63;102353.00;5054169;28;19947;-81
2021/04/18 10:30:35;;;;;;;;;;;;;;;16.84;36.42;102351.34;5052426;28;19988;-81
2021/04/18 10:33:00;;;;;;;;;;;;;;;17.02;36.23;102357.34;5053418;28;19916;-80
2021/04/18 10:35:25;;;;;;;;;;;;;;;17.11;36.08;102346.63;5051920;28;19913;-81
2021/04/18 10:37:51;;;;;;;;;;;;;;;17.19;35.86;102346.84;5054249;28;20058;-79
2021/04/18 10:40:17;;;;;;;;;;;;;;;17.32;35.70;102348.16;5035284;28;20735;-81
2021/04/18 10:42:42;;;;;;;;;;;;;;;17.42;35.49;102344.56;5050401;28;20003;-80
2021/04/18 10:45:08;;;;;;;;;;;;;;;17.51;35.34;102342.84;5050490;28;20388;-81
2021/04/18 10:47:34;;;;;;;;;;;;;;;17.59;35.30;102347.78;5050744;28;19912;-80
2021/04/18 10:50:02;;;;;;;;;;;;;;;17.68;34.95;102340.59;5084016;28;19916;-81
2021/04/18 10:52:27;;;;;;;;;;;;;;;17.75;34.96;102346.59;5050582;28;19916;-82
2021/04/18 10:54:53;;;;;;;;;;;;;;;17.83;34.74;102347.16;5052478;28;20422;-81
2021/04/18 10:57:18;;;;;;;;;;;;;;;18.00;34.51;102338.47;5042267;28;19913;-78
2021/04/18 10:59:43;;;;;;;;;;;;;;;18.07;34.26;102331.53;5084411;28;20393;-80
2021/04/18 11:02:08;;;;;;;;;;;;;;;18.17;34.34;102337.00;5052618;28;19916;-81
2021/04/18 11:04:34;;;;;;;;;;;;;;;18.37;34.16;102335.19;5052703;28;19909;-80
2021/04/18 11:07:02;;;;;;;;;;;;;;;18.49;33.81;102324.56;5050851;28;20296;-80
2021/04/18 11:09:27;;;;;;;;;;;;;;;18.38;33.40;102328.53;5045685;28;19913;-81
2021/04/18 11:11:52;;;;;;;;;;;;;;;18.40;33.56;102329.06;5047413;28;19916;-80
2021/04/18 11:14:18;;;;;;;;;;;;;;;18.41;33.32;102328.81;5044708;28;19913;-80
2021/04/18 11:16:43;;;;;;;;;;;;;;;18.41;33.14;102327.94;5052455;28;19951;-80
2021/04/18 11:19:08;;;;;;;;;;;;;;;18.54;33.12;102327.28;5052742;28;20009;-81
2021/04/18 11:21:34;;;;;;;;;;;;;;;18.83;33.32;102320.97;5052525;28;19958;-80
2021/04/18 11:23:59;;;;;;;;;;;;;;;18.93;33.07;102309.78;5052137;28;19920;-79
2021/04/18 11:26:24;;;;;;;;;;;;;;;19.03;32.70;102317.16;5052304;28;20288;-80
2021/04/18 11:28:50;;;;;;;;;;;;;;;19.09;32.47;102318.72;5052358;28;19922;-80
2021/04/18 11:31:15;;;;;;;;;;;;;;;19.20;32.61;102309.19;5046926;28;19912;-80
2021/04/18 11:33:41;;;;;;;;;;;;;;;19.38;32.18;102309.56;5050393;28;19920;-80
2021/04/18 11:36:06;;;;;;;;;;;;;;;19.57;32.36;102304.88;5084565;28;19978;-79
2021/04/18 11:38:31;;;;;;;;;;;;;;;19.69;32.00;102298.91;5051835;28;19909;-80
2021/04/18 11:40:57;;;;;;;;;;;;;;;19.85;32.03;102303.09;5052077;28;19913;-81
2021/04/18 11:43:22;;;;;;;;;;;;;;;19.96;31.60;102289.91;5052934;28;19909;-80
2021/04/18 11:45:47;;;;;;;;;;;;;;;20.09;31.52;102296.66;5052737;28;19913;-78
2021/04/18 11:48:12;;;;;;;;;;;;;;;20.28;31.20;102300.19;5044955;28;19951;-78
2021/04/18 11:50:38;;;;;;;;;;;;;;;20.44;31.02;102291.63;5045409;28;19919;-78
2021/04/18 11:53:03;;;;;;;;;;;;;;;20.67;30.88;102290.66;5050836;28;19916;-78
2021/04/18 11:55:29;;;;;;;;;;;;;;;20.94;30.70;102291.81;5051168;28;19920;-78
2021/04/18 11:57:54;;;;;;;;;;;;;;;21.18;30.43;102286.06;5042829;28;19920;-78
2021/04/18 12:00:20;;;;;;;;;;;;;;;21.44;30.37;102286.38;5050859;28;20238;-79
2021/04/18 12:02:45;;;;;;;;;;;;;;;21.67;30.05;102290.84;5049548;28;19949;-78
2021/04/18 12:05:11;;;;;;;;;;;;;;;21.80;29.66;102282.75;5041740;28;19908;-79
2021/04/18 12:07:36;;;;;;;;;;;;;;;21.91;29.54;102278.63;5048017;28;19913;-78
2021/04/18 12:10:02;;;;;;;;;;;;;;;22.09;29.44;102280.38;5084184;28;20366;-78
2021/04/18 12:12:28;;;;;;;;;;;;;;;22.32;29.15;102270.13;5040193;28;19996;-80
2021/04/18 12:14:54;;;;;;;;;;;;;;;22.45;28.76;102267.56;5049055;28;19948;-78
2021/04/18 12:17:19;;;;;;;;;;;;;;;22.58;28.53;102270.25;5049439;28;19917;-79
2021/04/18 12:19:44;;;;;;;;;;;;;;;22.74;28.23;102269.84;5084493;28;19934;-78
2021/04/18 12:22:09;;;;;;;;;;;;;;;23.02;28.14;102271.25;5050490;28;19965;-78
2021/04/18 12:24:35;;;;;;;;;;;;;;;23.53;27.87;102270.88;5051456;28;19913;-78
2021/04/18 12:27:00;;;;;;;;;;;;;;;23.88;27.69;102267.00;5050841;28;19964;-79
2021/04/18 12:29:25;;;;;;;;;;;;;;;24.34;27.39;102262.66;5081907;28;20646;-79
2021/04/18 12:31:50;;;;;;;;;;;;;;;24.79;26.94;102253.81;5049771;28;20263;-80
2021/04/18 12:34:16;;;;;;;;;;;;;;;25.14;26.46;102256.41;5052317;28;19913;-79